Welcome to our Virtual Airline
Sign-in:

Flight MFC44101

  • Submitted By: James Smith
  • Departure Airport: Horsfeld (4Z5)
  • Arrival Airport: Glacier Creek Airport (KGZ)
  • Aircraft: ICON A5 (N0A5MM)
  • Flight Time: 00.54.51
  • Date Submitted: 19/01/14
  • Route: STOP AT ROCK LAKE CABIN (RKLK) & SKOLIA LAKE CABIN (SKOL)
  • Status: Accepted
Flight Details
Gross Revenue:
(250 load / $ 96.00 per unit
$ 24, 000.00
Fuel Cost:
(33.5658 fuel used @ 5.1 / unit)
$ 171.19

Additional Log Information:

View Log

FS[12:05] ----- Flight Opened -----
FS[12:05] Cigar Box - 1.1.4.0
FS[12:05] FS: Prepar3D V4
FS[12:05] FSUIPC: v5.15
FS[12:05] Flight Number: MFC44101
FS[12:05] FS Aircraft: C185F SKYWAGON Misty Taxi Amphibian
FS[12:05] FS Model: C185
FS[12:05] FS Type: Cessna
FS[12:05] Departure: 4Z5
FS[12:05] Arrival: KGZ
FS[12:05] Flight Level: 8500
FS[12:05] Flight Type: H
FS[12:05] Passengers: 0
FS[12:05] FOB: 230 lbs
FS[12:05] Gate: n/a
FS[12:05] NOTE: Parking Brake Ignored
FS[12:05] Crash Detection: Disabled
FS[12:05] Engines: 1 Piston
FS[12:05] NOTE: Boarding has started
FS[12:05] Parking Brake: Engaged
FS[12:05] Engine 1: Started
FS[12:05] Flaps: Position 0
FS[12:05] Light Data: Navigation ON
FS[12:05] Light Data: Beacon ON
FS[12:05] Light Data: Landing lights ON
FS[12:05] Light Data: Strobe lights ON
FS[12:05] Light Data: Instrument lights ON
FS[12:05] Main Door Closed
FS[12:05] COM1: 126.55
FS[12:05] COM2: 131.80
FS[12:05] Transponder: 1200
FS[12:05] NAV1: 112.90
FS[12:05] NAV2: 110.55
FS[12:05] ADF1: 511.0
FS[12:05] ADF2: 240.0
FS[12:05] Navigation Mode: NAV
FS[12:05] Flaps: Position 1
FS[12:05] Parking Brake: Released
FS[12:05] NOTE: Taxi started
FS[12:05] Flaps: Position 2
FS[12:06] NOTE: ----- TAKE OFF -----
FS[12:06] GS: 50 knots
FS[12:06] TAS: 51 knots
FS[12:06] IAS: 51 knots
FS[12:06] VS: 0 fpm
FS[12:06] FOB: 230 lbs
FS[12:06] Heading: 21°
FS[12:06] Pitch: 1°
FS[12:06] Bank: 0°
FS[12:06] Aircraft Weight: 2335.11 lbs
FS[12:06] Nearest Airport: 4Z5
FS[12:06] Distance: 0.00 miles
FS[12:06] Runway: ???
FS[12:06] Ground Surface: Grass
FS[12:06] Ground Condition: Snow
FS[12:06] NOTE: Weather Report
FS[12:06] Wind Heading: 90°
FS[12:06] Wind Speed: 2 knots
FS[12:06] OAT: -15° C
FS[12:06] TAT: -14° C
FS[12:06] Precipitation: None
FS[12:06] Dew Point: -20° C
FS[12:06] Visibility: 39 miles
FS[12:06] METAR: No METAR available for 4Z5.
FS[12:06] NOTE: Climb started
FS[12:06] View Mode: Virtual Cockpit
FS[12:07] Flaps: Position 1
FS[12:07] GS: 71 knots
FS[12:07] TAS: 75 knots
FS[12:07] IAS: 73 knots
FS[12:07] VS: 973 fpm
FS[12:07] Landing Gear: Retracted
FS[12:07] GS: 73 knots
FS[12:07] TAS: 77 knots
FS[12:07] IAS: 75 knots
FS[12:07] VS: 846 fpm
FS[12:07] AGL: 1447 ft
FS[12:07] AMSL: 4901 ft
FS[12:07] Flaps: Position 0
FS[12:07] GS: 73 knots
FS[12:07] TAS: 77 knots
FS[12:07] IAS: 75 knots
FS[12:07] VS: 846 fpm
FS[12:08] Flaps: Position 1
FS[12:08] GS: 85 knots
FS[12:08] TAS: 89 knots
FS[12:08] IAS: 83 knots
FS[12:08] VS: 1176 fpm
FS[12:08] Flaps: Position 0
FS[12:08] GS: 81 knots
FS[12:08] TAS: 85 knots
FS[12:08] IAS: 80 knots
FS[12:08] VS: 1609 fpm
FS[12:10] Recovery: Flight Saved
FS[12:14] Turbulence: Light
FS[12:15] Recovery: Flight Saved
FS[12:15] Turbulence: None
FS[12:17] NOTE: TOC reached
FS[12:17] NOTE: Cruise started
FS[12:17] GS: 114 knots
FS[12:17] TAS: 116 knots
FS[12:17] IAS: 105 knots
FS[12:17] VS: 193 fpm
FS[12:17] FOB: 208 lbs
FS[12:17] Heading: 249°
FS[12:17] Pitch: 0°
FS[12:17] Bank: -4°
FS[12:17] Aircraft Weight: 2313.50 lbs
FS[12:18] NOTE: TOD reached
FS[12:18] NOTE: Descent started
FS[12:18] GS: 118 knots
FS[12:18] TAS: 119 knots
FS[12:18] IAS: 108 knots
FS[12:18] VS: -407 fpm
FS[12:18] FOB: 208 lbs
FS[12:18] Heading: 254°
FS[12:18] Pitch: 3°
FS[12:18] Bank: -4°
FS[12:18] Aircraft Weight: 2313.39 lbs
FS[12:18] NOTE: On approach
FS[12:21] Turbulence: Light
FS[12:23] Flaps: Position 1
FS[12:23] GS: 87 knots
FS[12:23] TAS: 89 knots
FS[12:23] IAS: 90 knots
FS[12:23] VS: 87 fpm
FS[12:23] Flaps: Position 2
FS[12:23] GS: 87 knots
FS[12:23] TAS: 88 knots
FS[12:23] IAS: 89 knots
FS[12:23] VS: 139 fpm
FS[12:23] Flaps: Position 3
FS[12:23] GS: 71 knots
FS[12:23] TAS: 72 knots
FS[12:23] IAS: 73 knots
FS[12:23] VS: -245 fpm
FS[12:24] NOTE: ----- LANDED -----
FS[12:24] Landing Rate: -298.35 fpm
FS[12:24] GS: 52 knots
FS[12:24] TAS: 53 knots
FS[12:24] IAS: 54 knots
FS[12:24] VS: -292 fpm
FS[12:24] FOB: 201 lbs
FS[12:24] Heading: 253°
FS[12:24] Pitch: 1°
FS[12:24] Bank: 0°
FS[12:24] Aircraft Weight: 2306.94 lbs
FS[12:24] Nearest Airport: RKLK
FS[12:24] Distance: 0.25 miles
FS[12:24] Runway: ???
FS[12:24] Ground Surface: Water
FS[12:24] Ground Condition: Snow
FS[12:24] NOTE: Weather Report
FS[12:24] Wind Heading: 109°
FS[12:24] Wind Speed: 1 knots
FS[12:24] OAT: -28° C
FS[12:24] TAT: -28° C
FS[12:24] Precipitation: None
FS[12:24] Dew Point: -31° C
FS[12:24] Visibility: 39 miles
FS[12:24] METAR: KGZH 141953Z AUTO 35006KT 10SM OVC015 07/02 A3030 RMK AO2 SLP262 T00670022KGZL 142015Z AUTO 23004KT 10SM OVC015 02/M03 A3042 RMK AO2KGZN 142000Z AUTO 00000KT 10SM OVC045 06/00 A3035 RMK AO2KGZS 142015Z AUTO 01007KT 10SM OVC018 04/01 A3032 RMK A01
FS[12:24] View Mode: Virtual Cockpit
FS[12:24] NOTE: Taxi started
FS[12:24] Engine 1: Stopped
FS[12:24] Flaps: Position 2
FS[12:25] Engine 1: Started
FS[12:26] Flaps: Position 1
FS[12:26] GS: 75 knots
FS[12:26] TAS: 79 knots
FS[12:26] IAS: 81 knots
FS[12:26] VS: 1270 fpm
FS[12:26] Flaps: Position 0
FS[12:26] GS: 79 knots
FS[12:26] TAS: 81 knots
FS[12:26] IAS: 82 knots
FS[12:26] VS: 1229 fpm
FS[12:26] View Mode: Virtual Cockpit
FS[12:26] Turbulence: Light
FS[12:27] Turbulence: None
FS[12:27] Recovery: Flight Saved
FS[12:28] FS: Paused
FS[12:28] FS: Unpaused
FS[12:28] Recovery: Flight Saved
FS[12:33] Recovery: Flight Saved
FS[12:40] Flaps: Position 1
FS[12:40] GS: 83 knots
FS[12:40] TAS: 82 knots
FS[12:40] IAS: 81 knots
FS[12:40] VS: -330 fpm
FS[12:40] Flaps: Position 2
FS[12:40] GS: 77 knots
FS[12:40] TAS: 76 knots
FS[12:40] IAS: 76 knots
FS[12:40] VS: 80 fpm
FS[12:40] Flaps: Position 3
FS[12:40] GS: 68 knots
FS[12:40] TAS: 67 knots
FS[12:40] IAS: 67 knots
FS[12:40] VS: -619 fpm
FS[12:40] NOTE: ----- LANDED -----
FS[12:40] Landing Rate: -308.35 fpm
FS[12:40] GS: 50 knots
FS[12:40] TAS: 51 knots
FS[12:40] IAS: 51 knots
FS[12:40] VS: -295 fpm
FS[12:40] FOB: 177 lbs
FS[12:40] Heading: 101°
FS[12:40] Pitch: 3°
FS[12:40] Bank: 0°
FS[12:40] Aircraft Weight: 2282.56 lbs
FS[12:40] Nearest Airport: SKOL
FS[12:40] Distance: 0.32 miles
FS[12:40] Runway: ???
FS[12:40] Ground Surface: Water
FS[12:40] Ground Condition: Snow
FS[12:40] NOTE: Weather Report
FS[12:40] Wind Heading: 66°
FS[12:40] Wind Speed: 1 knots
FS[12:40] OAT: -28° C
FS[12:40] TAT: -28° C
FS[12:40] Precipitation: None
FS[12:40] Dew Point: -31° C
FS[12:40] Visibility: 39 miles
FS[12:40] METAR: KGZH 141953Z AUTO 35006KT 10SM OVC015 07/02 A3030 RMK AO2 SLP262 T00670022KGZL 142015Z AUTO 23004KT 10SM OVC015 02/M03 A3042 RMK AO2KGZN 142000Z AUTO 00000KT 10SM OVC045 06/00 A3035 RMK AO2KGZS 142015Z AUTO 01007KT 10SM OVC018 04/01 A3032 RMK A01
FS[12:40] View Mode: Virtual Cockpit
FS[12:41] Engine 1: Stopped
FS[12:42] Engine 1: Started
FS[12:43] View Mode: Virtual Cockpit
FS[12:43] Flaps: Position 2
FS[12:43] GS: 69 knots
FS[12:43] TAS: 70 knots
FS[12:43] IAS: 71 knots
FS[12:43] VS: 1419 fpm
FS[12:43] Flaps: Position 1
FS[12:43] GS: 75 knots
FS[12:43] TAS: 74 knots
FS[12:43] IAS: 74 knots
FS[12:43] VS: 1000 fpm
FS[12:43] Flaps: Position 0
FS[12:43] GS: 81 knots
FS[12:43] TAS: 80 knots
FS[12:43] IAS: 80 knots
FS[12:43] VS: 666 fpm
FS[12:45] Recovery: Flight Saved
FS[12:48] Turbulence: Moderate
FS[12:49] Turbulence: None
FS[12:50] Recovery: Flight Saved
FS[12:55] COM1: 122.90
FS[12:56] Recovery: Flight Saved
FS[13:00] Flaps: Position 1
FS[13:00] GS: 71 knots
FS[13:00] TAS: 75 knots
FS[13:00] IAS: 76 knots
FS[13:00] VS: 31 fpm
FS[13:00] Flaps: Position 2
FS[13:00] GS: 69 knots
FS[13:00] TAS: 73 knots
FS[13:00] IAS: 74 knots
FS[13:00] VS: 154 fpm
FS[13:00] Landing Gear: Extended
FS[13:00] GS: 54 knots
FS[13:00] TAS: 59 knots
FS[13:00] IAS: 59 knots
FS[13:00] VS: -81 fpm
FS[13:00] AGL: 518 ft
FS[13:00] AMSL: 2995 ft
FS[13:00] Flaps: Position 3
FS[13:00] GS: 75 knots
FS[13:00] TAS: 75 knots
FS[13:00] IAS: 76 knots
FS[13:00] VS: -722 fpm
FS[13:00] Flaps: Position 4
FS[13:00] GS: 73 knots
FS[13:00] TAS: 72 knots
FS[13:00] IAS: 73 knots
FS[13:00] VS: -760 fpm
FS[13:01] Turbulence: Light
FS[13:01] Turbulence: None
FS[13:01] NOTE: ----- LANDED -----
FS[13:01] Landing Rate: -408.31 fpm
FS[13:01] GS: 48 knots
FS[13:01] TAS: 48 knots
FS[13:01] IAS: 49 knots
FS[13:01] VS: -406 fpm
FS[13:01] FOB: 157 lbs
FS[13:01] Heading: 283°
FS[13:01] Pitch: 3°
FS[13:01] Bank: -3°
FS[13:01] Aircraft Weight: 2261.86 lbs
FS[13:01] Nearest Airport: KGZ
FS[13:01] Distance: 0.14 miles
FS[13:01] Runway: ???
FS[13:01] Ground Surface: Urban
FS[13:01] Ground Condition: Snow
FS[13:01] NOTE: Weather Report
FS[13:01] Wind Heading: 71°
FS[13:01] Wind Speed: 3 knots
FS[13:01] OAT: -17° C
FS[13:01] TAT: -17° C
FS[13:01] Precipitation: None
FS[13:01] Dew Point: 5° C
FS[13:01] Visibility: 39 miles
FS[13:01] METAR: KGZH 141953Z AUTO 35006KT 10SM OVC015 07/02 A3030 RMK AO2 SLP262 T00670022KGZL 142015Z AUTO 23004KT 10SM OVC015 02/M03 A3042 RMK AO2KGZN 142000Z AUTO 00000KT 10SM OVC045 06/00 A3035 RMK AO2KGZS 142015Z AUTO 01007KT 10SM OVC018 04/01 A3032 RMK A01
FS[13:01] View Mode: Virtual Cockpit
FS[13:02] NOTE: Arrived
FS[13:02] Parking Brake: Engaged
FS[13:02] Engine 1: Stopped
FS[13:02] Gate: n/a
FS[13:02] NOTE: Flight Completed
FS[13:02] FS Aircraft: C185F SKYWAGON Misty Taxi Amphibian
FS[13:02] FS Model: C185
FS[13:02] FS Type: Cessna
FS[13:02] FOB: 157 lbs
FS[13:02] Fuel Used: 74 lbs
FS[13:02] Flight Time: 00:54:51
FS[13:02] Flight Time (Dawn): 00:00:00
FS[13:02] Flight Time (Day): 00:54:51
FS[13:02] Flight Time (Dusk): 00:00:00
FS[13:02] Flight Time (Night): 00:00:00
FS[13:02] Total Landings: 3
FS[13:02] MaxSim Rate: 0x
FS[13:02] Cigar Box - 1.1.4.0
FS[13:02] ----- Flight Closed -----

Route Map